Airfield :
LOGIN :

Register | Disclaimer

   EN    FR    IT 

 










Legend :    VFR   Marginal VFR   IFR   Intensive IFR   Very Intensive IFR
Visi :
Ceiling :
>= 8 km
>= 3000ft
5 to 8 km
1000 to 3000 ft
1500m to 5 km
500 to 1000 ft
800 to 1500m
200 to 500 ft
< 800m
< 200 ft
Symbols :   Thunderstorms  Fog  Heavy snow  Heavy precipitations  Wind > 20 kt
SIGMETs :     Misc.  Thunderstorms  Icing  Turbulence  Mountain Waves  Volcanic Ashes






- Airport Elevation : 1521 ft
- IATA code : NCY


LFLP - Annecy

CURRENT METAR :
  • 111530Z AUTO 21004KT 160V280 CAVOK 33/14 Q1015 TEMPO FEW090CB

EXPIRED METARs :
  • 111500Z AUTO 22007KT 180V250 CAVOK 33/13 Q1016 TEMPO FEW090CB
  • 111430Z AUTO 22006KT 170V260 CAVOK 33/13 Q1016 TEMPO FEW090CB
  • 111400Z AUTO 23006KT 190V270 CAVOK 33/13 Q1016 TEMPO FEW090CB
  • 111330Z AUTO 22006KT 190V270 CAVOK 32/14 Q1016 TEMPO FEW090CB
  • 111300Z AUTO 23006KT 180V270 CAVOK 32/16 Q1017 TEMPO FEW090CB

TAF TAF LFLP
Valid from the 11 at 15:00 until the 12 at 15:00 UTC


111400Z 1115/1215 VRB02KT CAVOK
PROB40 1115/1119 FEW090CB
TEMPO 1212/1215 24012KT



MET'MAP, your aeronautical weather chart ! - Copyright ORBIFLY December 2007 - Disclaimer

ORBIFLY MET'MAP TEAM :

Programming & Development : Alexandra Zaïnal
Concept & original design : Baudouin d'Aumeries
Assistance for programming : Marc-Olivier Méhu
Technical & hardware support : Manuel Goepfert

Contact : metmap@orbifly.com




SOURCES & CREDITS :

   NOAA